sensor_id;sensor_type;location;lat;lon;timestamp;pressure;altitude;pressure_sealevel;temperature;humidity
68226;BME280;55045;49.410;11.030;2022-12-18T00:01:23;99419.44;;;-12.52;100.00
68226;BME280;55045;49.410;11.030;2022-12-18T00:04:37;99411.22;;;-12.10;100.00
68226;BME280;55045;49.410;11.030;2022-12-18T00:07:46;99420.69;;;-12.32;100.00
68226;BME280;55045;49.410;11.030;2022-12-18T00:10:54;99408.00;;;-12.48;100.00
68226;BME280;55045;49.410;11.030;2022-12-18T00:14:03;99418.59;;;-12.66;100.00
68226;BME280;55045;49.410;11.030;2022-12-18T00:17:09;99407.66;;;-12.00;100.00
68226;BME280;55045;49.410;11.030;2022-12-18T00:20:15;99413.31;;;-11.89;100.00
68226;BME280;55045;49.410;11.030;2022-12-18T00:23:28;99387.41;;;-12.58;100.00
68226;BME280;55045;49.410;11.030;2022-12-18T00:27:00;99408.28;;;-12.57;100.00
68226;BME280;55045;49.410;11.030;2022-12-18T00:30:07;99405.44;;;-12.09;100.00
68226;BME280;55045;49.410;11.030;2022-12-18T00:33:17;99399.16;;;-12.57;100.00
68226;BME280;55045;49.410;11.030;2022-12-18T00:36:24;99408.75;;;-12.50;100.00
68226;BME280;55045;49.410;11.030;2022-12-18T00:39:35;99392.56;;;-12.02;100.00
68226;BME280;55045;49.410;11.030;2022-12-18T00:42:43;99418.88;;;-11.80;100.00
68226;BME280;55045;49.410;11.030;2022-12-18T00:46:04;99422.69;;;-12.13;100.00
68226;BME280;55045;49.410;11.030;2022-12-18T00:49:10;99418.66;;;-12.25;100.00
68226;BME280;55045;49.410;11.030;2022-12-18T00:52:21;99412.97;;;-12.09;100.00
68226;BME280;55045;49.410;11.030;2022-12-18T00:55:26;99414.22;;;-12.02;100.00
68226;BME280;55045;49.410;11.030;2022-12-18T00:58:37;99426.28;;;-11.82;100.00
68226;BME280;55045;49.410;11.030;2022-12-18T01:01:54;99420.22;;;-11.85;100.00
68226;BME280;55045;49.410;11.030;2022-12-18T01:05:09;99415.34;;;-11.97;100.00
68226;BME280;55045;49.410;11.030;2022-12-18T01:08:13;99433.34;;;-11.75;100.00
68226;BME280;55045;49.410;11.030;2022-12-18T01:11:24;99439.97;;;-11.75;100.00
68226;BME280;55045;49.410;11.030;2022-12-18T01:14:29;99437.28;;;-11.78;100.00
68226;BME280;55045;49.410;11.030;2022-12-18T01:17:40;99449.41;;;-11.71;100.00
68226;BME280;55045;49.410;11.030;2022-12-18T01:20:56;99449.97;;;-11.62;100.00
68226;BME280;55045;49.410;11.030;2022-12-18T01:24:12;99448.22;;;-11.35;100.00
68226;BME280;55045;49.410;11.030;2022-12-18T01:27:19;99446.94;;;-11.28;100.00
68226;BME280;55045;49.410;11.030;2022-12-18T01:30:30;99451.22;;;-10.98;100.00
68226;BME280;55045;49.410;11.030;2022-12-18T01:33:41;99451.16;;;-10.85;100.00
68226;BME280;55045;49.410;11.030;2022-12-18T01:36:50;99463.25;;;-10.78;100.00
68226;BME280;55045;49.410;11.030;2022-12-18T01:39:56;99462.75;;;-10.57;100.00
68226;BME280;55045;49.410;11.030;2022-12-18T01:43:09;99470.06;;;-10.75;100.00
68226;BME280;55045;49.410;11.030;2022-12-18T01:46:27;99459.38;;;-10.87;100.00
68226;BME280;55045;49.410;11.030;2022-12-18T01:49:36;99467.56;;;-10.75;100.00
68226;BME280;55045;49.410;11.030;2022-12-18T01:52:50;99468.97;;;-10.51;100.00
68226;BME280;55045;49.410;11.030;2022-12-18T01:55:56;99472.34;;;-10.50;100.00
68226;BME280;55045;49.410;11.030;2022-12-18T01:59:04;99476.75;;;-10.31;100.00
68226;BME280;55045;49.410;11.030;2022-12-18T02:02:17;99474.41;;;-10.12;100.00
68226;BME280;55045;49.410;11.030;2022-12-18T02:05:32;99463.22;;;-10.02;100.00
68226;BME280;55045;49.410;11.030;2022-12-18T02:08:50;99461.22;;;-9.93;100.00
68226;BME280;55045;49.410;11.030;2022-12-18T02:12:08;99464.66;;;-9.91;100.00
68226;BME280;55045;49.410;11.030;2022-12-18T02:15:30;99463.63;;;-9.80;100.00
68226;BME280;55045;49.410;11.030;2022-12-18T02:18:46;99468.28;;;-9.55;100.00
68226;BME280;55045;49.410;11.030;2022-12-18T02:28:54;99479.91;;;-9.57;100.00
68226;BME280;55045;49.410;11.030;2022-12-18T02:32:05;99473.16;;;-9.42;100.00
68226;BME280;55045;49.410;11.030;2022-12-18T02:35:28;99476.63;;;-9.40;100.00
68226;BME280;55045;49.410;11.030;2022-12-18T02:38:42;99472.69;;;-9.18;100.00
68226;BME280;55045;49.410;11.030;2022-12-18T02:41:52;99437.38;;;-9.38;100.00
68226;BME280;55045;49.410;11.030;2022-12-18T02:45:07;99473.56;;;-9.18;100.00
68226;BME280;55045;49.410;11.030;2022-12-18T02:48:17;99483.94;;;-9.28;100.00
68226;BME280;55045;49.410;11.030;2022-12-18T02:51:36;99487.28;;;-9.11;100.00
68226;BME280;55045;49.410;11.030;2022-12-18T02:54:55;99494.13;;;-9.25;100.00
68226;BME280;55045;49.410;11.030;2022-12-18T02:58:05;99500.16;;;-9.21;100.00
68226;BME280;55045;49.410;11.030;2022-12-18T03:01:24;99485.28;;;-9.18;100.00
68226;BME280;55045;49.410;11.030;2022-12-18T03:04:43;99481.72;;;-9.06;100.00
68226;BME280;55045;49.410;11.030;2022-12-18T03:08:02;99478.63;;;-8.84;100.00
68226;BME280;55045;49.410;11.030;2022-12-18T03:11:13;99473.78;;;-8.97;100.00
68226;BME280;55045;49.410;11.030;2022-12-18T03:14:20;99462.16;;;-8.95;100.00
68226;BME280;55045;49.410;11.030;2022-12-18T03:17:45;99459.03;;;-9.07;100.00
68226;BME280;55045;49.410;11.030;2022-12-18T03:20:55;99462.41;;;-9.07;100.00
68226;BME280;55045;49.410;11.030;2022-12-18T03:24:13;99458.06;;;-9.09;100.00
68226;BME280;55045;49.410;11.030;2022-12-18T03:27:22;99470.72;;;-9.08;100.00
68226;BME280;55045;49.410;11.030;2022-12-18T03:30:37;99444.03;;;-9.38;100.00
68226;BME280;55045;49.410;11.030;2022-12-18T03:33:58;99491.69;;;-9.07;100.00
68226;BME280;55045;49.410;11.030;2022-12-18T03:37:18;99484.00;;;-8.94;100.00
68226;BME280;55045;49.410;11.030;2022-12-18T03:40:34;99474.94;;;-8.90;100.00
68226;BME280;55045;49.410;11.030;2022-12-18T03:43:47;99485.00;;;-8.90;100.00
68226;BME280;55045;49.410;11.030;2022-12-18T03:47:06;99485.69;;;-8.77;100.00
68226;BME280;55045;49.410;11.030;2022-12-18T03:50:19;99480.69;;;-8.77;100.00
68226;BME280;55045;49.410;11.030;2022-12-18T03:54:31;99484.91;;;-8.76;100.00
68226;BME280;55045;49.410;11.030;2022-12-18T03:57:44;99478.38;;;-8.72;100.00
68226;BME280;55045;49.410;11.030;2022-12-18T04:01:00;99472.00;;;-8.65;100.00
68226;BME280;55045;49.410;11.030;2022-12-18T04:04:17;99476.31;;;-8.63;100.00
68226;BME280;55045;49.410;11.030;2022-12-18T04:07:47;99474.56;;;-8.48;100.00
68226;BME280;55045;49.410;11.030;2022-12-18T04:10:54;99485.59;;;-8.62;100.00
68226;BME280;55045;49.410;11.030;2022-12-18T04:14:01;99495.03;;;-8.58;100.00
68226;BME280;55045;49.410;11.030;2022-12-18T04:17:19;99500.06;;;-8.40;100.00
68226;BME280;55045;49.410;11.030;2022-12-18T04:20:32;99503.50;;;-8.56;100.00
68226;BME280;55045;49.410;11.030;2022-12-18T04:23:50;99491.72;;;-8.57;100.00
68226;BME280;55045;49.410;11.030;2022-12-18T04:27:15;99494.84;;;-8.61;100.00
68226;BME280;55045;49.410;11.030;2022-12-18T04:30:25;99503.31;;;-8.43;100.00
68226;BME280;55045;49.410;11.030;2022-12-18T04:34:48;99509.69;;;-8.49;100.00
68226;BME280;55045;49.410;11.030;2022-12-18T04:37:57;99500.66;;;-8.46;100.00
68226;BME280;55045;49.410;11.030;2022-12-18T04:41:13;99502.31;;;-8.46;100.00
68226;BME280;55045;49.410;11.030;2022-12-18T04:44:21;99505.25;;;-8.37;100.00
68226;BME280;55045;49.410;11.030;2022-12-18T04:47:35;99516.84;;;-8.05;100.00
68226;BME280;55045;49.410;11.030;2022-12-18T04:51:01;99514.31;;;-8.23;100.00
68226;BME280;55045;49.410;11.030;2022-12-18T04:54:09;99503.94;;;-8.29;100.00
68226;BME280;55045;49.410;11.030;2022-12-18T04:57:14;99502.03;;;-8.34;100.00
68226;BME280;55045;49.410;11.030;2022-12-18T05:00:29;99500.47;;;-8.31;100.00
68226;BME280;55045;49.410;11.030;2022-12-18T05:03:36;99496.75;;;-8.21;100.00
68226;BME280;55045;49.410;11.030;2022-12-18T05:06:46;99497.19;;;-8.12;100.00
68226;BME280;55045;49.410;11.030;2022-12-18T05:10:04;99493.38;;;-8.04;100.00
68226;BME280;55045;49.410;11.030;2022-12-18T05:13:20;99495.09;;;-8.03;100.00
68226;BME280;55045;49.410;11.030;2022-12-18T05:16:34;99490.38;;;-7.97;100.00
68226;BME280;55045;49.410;11.030;2022-12-18T05:19:46;99489.06;;;-7.89;100.00
68226;BME280;55045;49.410;11.030;2022-12-18T05:23:12;99426.72;;;-8.12;100.00
68226;BME280;55045;49.410;11.030;2022-12-18T05:26:19;99487.38;;;-7.70;100.00
68226;BME280;55045;49.410;11.030;2022-12-18T05:29:33;99504.22;;;-7.69;100.00
68226;BME280;55045;49.410;11.030;2022-12-18T05:32:42;99507.09;;;-7.62;100.00
68226;BME280;55045;49.410;11.030;2022-12-18T05:35:53;99465.88;;;-7.81;100.00
68226;BME280;55045;49.410;11.030;2022-12-18T05:39:06;99490.53;;;-7.57;100.00
68226;BME280;55045;49.410;11.030;2022-12-18T05:42:16;99495.66;;;-7.55;100.00
68226;BME280;55045;49.410;11.030;2022-12-18T05:45:23;99497.78;;;-7.45;100.00
68226;BME280;55045;49.410;11.030;2022-12-18T05:48:29;99500.50;;;-7.40;100.00
68226;BME280;55045;49.410;11.030;2022-12-18T05:51:35;99495.19;;;-7.27;100.00
68226;BME280;55045;49.410;11.030;2022-12-18T05:54:51;99501.00;;;-7.10;100.00
68226;BME280;55045;49.410;11.030;2022-12-18T05:58:06;99505.13;;;-7.12;100.00
68226;BME280;55045;49.410;11.030;2022-12-18T06:01:22;99505.81;;;-6.96;100.00
68226;BME280;55045;49.410;11.030;2022-12-18T06:04:42;99517.72;;;-6.74;100.00
68226;BME280;55045;49.410;11.030;2022-12-18T06:07:48;99513.44;;;-6.75;100.00
68226;BME280;55045;49.410;11.030;2022-12-18T06:10:56;99524.72;;;-6.67;100.00
68226;BME280;55045;49.410;11.030;2022-12-18T06:14:03;99528.25;;;-6.63;100.00
68226;BME280;55045;49.410;11.030;2022-12-18T06:17:14;99530.84;;;-6.61;100.00
68226;BME280;55045;49.410;11.030;2022-12-18T06:20:20;99521.00;;;-6.55;100.00
68226;BME280;55045;49.410;11.030;2022-12-18T06:23:38;99509.31;;;-6.53;100.00
68226;BME280;55045;49.410;11.030;2022-12-18T06:26:49;99519.53;;;-6.50;100.00
68226;BME280;55045;49.410;11.030;2022-12-18T06:29:53;99520.72;;;-6.42;100.00
68226;BME280;55045;49.410;11.030;2022-12-18T06:33:03;99534.44;;;-6.35;100.00
68226;BME280;55045;49.410;11.030;2022-12-18T06:36:12;99535.19;;;-6.38;100.00
68226;BME280;55045;49.410;11.030;2022-12-18T06:39:29;99542.94;;;-6.33;100.00
68226;BME280;55045;49.410;11.030;2022-12-18T06:42:57;99548.13;;;-6.30;100.00
68226;BME280;55045;49.410;11.030;2022-12-18T06:46:17;99541.03;;;-6.39;100.00
68226;BME280;55045;49.410;11.030;2022-12-18T06:49:31;99543.19;;;-6.27;100.00
68226;BME280;55045;49.410;11.030;2022-12-18T06:52:44;99543.16;;;-6.29;100.00
68226;BME280;55045;49.410;11.030;2022-12-18T06:55:49;99544.00;;;-6.28;100.00
68226;BME280;55045;49.410;11.030;2022-12-18T06:58:58;99539.50;;;-6.15;100.00
68226;BME280;55045;49.410;11.030;2022-12-18T07:02:10;99549.38;;;-6.21;100.00
68226;BME280;55045;49.410;11.030;2022-12-18T07:05:20;99547.72;;;-6.20;100.00
68226;BME280;55045;49.410;11.030;2022-12-18T07:08:38;99549.50;;;-6.18;100.00
68226;BME280;55045;49.410;11.030;2022-12-18T07:11:45;99549.50;;;-6.18;100.00
68226;BME280;55045;49.410;11.030;2022-12-18T07:15:00;99551.22;;;-6.17;100.00
68226;BME280;55045;49.410;11.030;2022-12-18T07:18:10;99535.09;;;-6.20;100.00
68226;BME280;55045;49.410;11.030;2022-12-18T07:21:39;99536.06;;;-6.17;100.00
68226;BME280;55045;49.410;11.030;2022-12-18T07:24:46;99523.25;;;-6.21;100.00
68226;BME280;55045;49.410;11.030;2022-12-18T07:27:56;99518.59;;;-6.12;100.00
68226;BME280;55045;49.410;11.030;2022-12-18T07:31:10;99529.59;;;-6.10;100.00
68226;BME280;55045;49.410;11.030;2022-12-18T07:34:29;99545.63;;;-6.10;100.00
68226;BME280;55045;49.410;11.030;2022-12-18T07:37:37;99546.66;;;-6.04;100.00
68226;BME280;55045;49.410;11.030;2022-12-18T07:40:44;99547.59;;;-6.02;100.00
68226;BME280;55045;49.410;11.030;2022-12-18T07:43:51;99552.81;;;-5.98;100.00
68226;BME280;55045;49.410;11.030;2022-12-18T07:47:07;99557.94;;;-5.96;100.00
68226;BME280;55045;49.410;11.030;2022-12-18T07:50:19;99568.94;;;-5.94;100.00
68226;BME280;55045;49.410;11.030;2022-12-18T07:53:29;99573.78;;;-6.00;100.00
68226;BME280;55045;49.410;11.030;2022-12-18T07:56:37;99575.72;;;-5.93;100.00
68226;BME280;55045;49.410;11.030;2022-12-18T07:59:47;99575.72;;;-5.93;100.00
68226;BME280;55045;49.410;11.030;2022-12-18T08:03:00;99572.72;;;-5.83;100.00
68226;BME280;55045;49.410;11.030;2022-12-18T08:06:23;99427.44;;;-6.81;100.00
68226;BME280;55045;49.410;11.030;2022-12-18T08:09:40;99446.66;;;-6.63;100.00
68226;BME280;55045;49.410;11.030;2022-12-18T08:12:50;99535.50;;;-6.10;100.00
68226;BME280;55045;49.410;11.030;2022-12-18T08:16:08;99445.38;;;-6.54;100.00
68226;BME280;55045;49.410;11.030;2022-12-18T08:19:19;99434.97;;;-6.61;100.00
68226;BME280;55045;49.410;11.030;2022-12-18T08:22:29;99582.28;;;-5.76;100.00
68226;BME280;55045;49.410;11.030;2022-12-18T08:25:46;99580.69;;;-5.74;100.00
68226;BME280;55045;49.410;11.030;2022-12-18T08:28:59;99429.06;;;-6.62;100.00
68226;BME280;55045;49.410;11.030;2022-12-18T08:32:23;99574.66;;;-5.77;100.00
68226;BME280;55045;49.410;11.030;2022-12-18T08:35:36;99578.53;;;-5.65;100.00
68226;BME280;55045;49.410;11.030;2022-12-18T08:38:47;99466.47;;;-6.31;100.00
68226;BME280;55045;49.410;11.030;2022-12-18T08:41:55;99527.03;;;-5.89;100.00
68226;BME280;55045;49.410;11.030;2022-12-18T08:45:19;99581.41;;;-5.56;100.00
68226;BME280;55045;49.410;11.030;2022-12-18T08:48:25;99550.66;;;-5.66;100.00
68226;BME280;55045;49.410;11.030;2022-12-18T08:51:39;99581.25;;;-5.60;100.00
68226;BME280;55045;49.410;11.030;2022-12-18T08:54:54;99577.78;;;-5.41;100.00
68226;BME280;55045;49.410;11.030;2022-12-18T08:58:07;99571.25;;;-5.35;100.00
68226;BME280;55045;49.410;11.030;2022-12-18T09:01:17;99568.53;;;-5.41;100.00
68226;BME280;55045;49.410;11.030;2022-12-18T09:04:26;99569.72;;;-5.31;100.00
68226;BME280;55045;49.410;11.030;2022-12-18T09:07:40;99569.03;;;-5.27;100.00
68226;BME280;55045;49.410;11.030;2022-12-18T09:10:49;99572.41;;;-5.27;100.00
68226;BME280;55045;49.410;11.030;2022-12-18T09:14:00;99546.63;;;-5.40;100.00
68226;BME280;55045;49.410;11.030;2022-12-18T09:17:06;99568.63;;;-5.15;100.00
68226;BME280;55045;49.410;11.030;2022-12-18T09:20:10;99558.09;;;-5.26;100.00
68226;BME280;55045;49.410;11.030;2022-12-18T09:23:16;99569.78;;;-5.07;100.00
68226;BME280;55045;49.410;11.030;2022-12-18T09:26:20;99399.13;;;-6.10;100.00
68226;BME280;55045;49.410;11.030;2022-12-18T09:29:23;99422.59;;;-5.90;100.00
68226;BME280;55045;49.410;11.030;2022-12-18T09:32:27;99522.00;;;-5.22;100.00
68226;BME280;55045;49.410;11.030;2022-12-18T09:35:35;99291.56;;;-6.72;100.00
68226;BME280;55045;49.410;11.030;2022-12-18T09:38:40;99542.16;;;-5.01;100.00
68226;BME280;55045;49.410;11.030;2022-12-18T09:41:50;99327.28;;;-6.40;100.00
68226;BME280;55045;49.410;11.030;2022-12-18T09:44:59;99560.72;;;-5.01;100.00
68226;BME280;55045;49.410;11.030;2022-12-18T09:48:10;99535.03;;;-5.11;100.00
68226;BME280;55045;49.410;11.030;2022-12-18T09:51:22;99538.19;;;-4.95;100.00
68226;BME280;55045;49.410;11.030;2022-12-18T09:54:34;99542.75;;;-4.84;100.00
68226;BME280;55045;49.410;11.030;2022-12-18T09:57:45;99508.72;;;-5.16;100.00
68226;BME280;55045;49.410;11.030;2022-12-18T10:00:56;99377.47;;;-6.03;100.00
68226;BME280;55045;49.410;11.030;2022-12-18T10:04:08;99406.72;;;-5.86;100.00
68226;BME280;55045;49.410;11.030;2022-12-18T10:07:24;99517.06;;;-5.19;100.00
68226;BME280;55045;49.410;11.030;2022-12-18T10:10:43;99440.66;;;-5.57;100.00
68226;BME280;55045;49.410;11.030;2022-12-18T10:14:13;99507.56;;;-5.25;100.00
68226;BME280;55045;49.410;11.030;2022-12-18T10:17:26;99460.78;;;-5.60;100.00
68226;BME280;55045;49.410;11.030;2022-12-18T10:20:38;99338.78;;;-6.47;100.00
68226;BME280;55045;49.410;11.030;2022-12-18T10:23:53;99532.06;;;-5.24;100.00
68226;BME280;55045;49.410;11.030;2022-12-18T10:27:12;99379.75;;;-6.11;100.00
68226;BME280;55045;49.410;11.030;2022-12-18T10:30:22;99493.53;;;-5.40;100.00
68226;BME280;55045;49.410;11.030;2022-12-18T10:34:43;99526.44;;;-5.39;100.00
68226;BME280;55045;49.410;11.030;2022-12-18T10:38:04;99395.34;;;-5.98;100.00
68226;BME280;55045;49.410;11.030;2022-12-18T10:41:24;99521.03;;;-5.26;100.00
68226;BME280;55045;49.410;11.030;2022-12-18T10:44:32;99353.78;;;-6.29;100.00
68226;BME280;55045;49.410;11.030;2022-12-18T10:47:45;99492.44;;;-5.47;100.00
68226;BME280;55045;49.410;11.030;2022-12-18T10:50:53;99400.66;;;-6.13;100.00
68226;BME280;55045;49.410;11.030;2022-12-18T10:54:15;99531.09;;;-5.27;100.00
68226;BME280;55045;49.410;11.030;2022-12-18T10:57:32;99391.09;;;-6.22;100.00
68226;BME280;55045;49.410;11.030;2022-12-18T11:00:37;99390.41;;;-6.18;100.00
68226;BME280;55045;49.410;11.030;2022-12-18T11:03:43;99424.81;;;-5.99;100.00
68226;BME280;55045;49.410;11.030;2022-12-18T11:06:57;99520.28;;;-5.45;100.00
68226;BME280;55045;49.410;11.030;2022-12-18T11:10:04;99353.19;;;-6.44;100.00
68226;BME280;55045;49.410;11.030;2022-12-18T11:13:11;99548.06;;;-5.01;100.00
68226;BME280;55045;49.410;11.030;2022-12-18T11:16:18;99246.47;;;-6.85;100.00
68226;BME280;55045;49.410;11.030;2022-12-18T11:19:31;99516.00;;;-5.02;100.00
68226;BME280;55045;49.410;11.030;2022-12-18T11:22:37;99501.28;;;-5.12;100.00
68226;BME280;55045;49.410;11.030;2022-12-18T11:25:53;99390.63;;;-5.89;100.00
68226;BME280;55045;49.410;11.030;2022-12-18T11:29:08;99506.91;;;-4.97;100.00
68226;BME280;55045;49.410;11.030;2022-12-18T11:32:28;99467.69;;;-5.32;100.00
68226;BME280;55045;49.410;11.030;2022-12-18T11:35:41;99515.31;;;-4.98;100.00
68226;BME280;55045;49.410;11.030;2022-12-18T11:38:55;99513.47;;;-5.02;100.00
68226;BME280;55045;49.410;11.030;2022-12-18T11:42:10;99514.28;;;-5.03;100.00
68226;BME280;55045;49.410;11.030;2022-12-18T11:45:30;99476.00;;;-5.12;100.00
68226;BME280;55045;49.410;11.030;2022-12-18T11:48:41;99496.31;;;-4.86;100.00
68226;BME280;55045;49.410;11.030;2022-12-18T11:51:50;99487.63;;;-4.69;100.00
68226;BME280;55045;49.410;11.030;2022-12-18T11:55:00;99486.09;;;-4.64;100.00
68226;BME280;55045;49.410;11.030;2022-12-18T11:58:11;99393.59;;;-5.05;100.00
68226;BME280;55045;49.410;11.030;2022-12-18T12:01:38;99454.31;;;-4.56;100.00
68226;BME280;55045;49.410;11.030;2022-12-18T12:04:56;99465.88;;;-4.39;100.00
68226;BME280;55045;49.410;11.030;2022-12-18T12:08:10;99431.94;;;-4.69;100.00
68226;BME280;55045;49.410;11.030;2022-12-18T12:11:26;99467.88;;;-4.54;100.00
68226;BME280;55045;49.410;11.030;2022-12-18T12:14:43;99476.91;;;-4.37;100.00
68226;BME280;55045;49.410;11.030;2022-12-18T12:17:54;99475.72;;;-4.46;100.00
68226;BME280;55045;49.410;11.030;2022-12-18T12:25:01;99440.25;;;-4.48;100.00
68226;BME280;55045;49.410;11.030;2022-12-18T12:28:19;99436.16;;;-4.43;100.00
68226;BME280;55045;49.410;11.030;2022-12-18T12:31:44;99459.97;;;-4.38;100.00
68226;BME280;55045;49.410;11.030;2022-12-18T12:35:03;99461.41;;;-4.46;100.00
68226;BME280;55045;49.410;11.030;2022-12-18T12:38:16;99427.22;;;-4.58;100.00
68226;BME280;55045;49.410;11.030;2022-12-18T12:41:24;99468.91;;;-4.22;100.00
68226;BME280;55045;49.410;11.030;2022-12-18T12:44:54;99439.59;;;-4.41;100.00
68226;BME280;55045;49.410;11.030;2022-12-18T12:48:01;99448.81;;;-4.17;100.00
68226;BME280;55045;49.410;11.030;2022-12-18T12:51:17;99451.41;;;-4.16;100.00
68226;BME280;55045;49.410;11.030;2022-12-18T12:54:31;99428.25;;;-4.26;100.00
68226;BME280;55045;49.410;11.030;2022-12-18T12:58:02;99409.41;;;-4.35;100.00
68226;BME280;55045;49.410;11.030;2022-12-18T13:01:17;99436.22;;;-4.14;100.00
68226;BME280;55045;49.410;11.030;2022-12-18T13:04:32;99402.63;;;-4.36;100.00
68226;BME280;55045;49.410;11.030;2022-12-18T13:07:41;99427.72;;;-4.16;100.00
68226;BME280;55045;49.410;11.030;2022-12-18T13:10:49;99436.00;;;-4.22;100.00
68226;BME280;55045;49.410;11.030;2022-12-18T13:14:24;99437.06;;;-4.15;100.00
68226;BME280;55045;49.410;11.030;2022-12-18T13:17:30;99410.66;;;-4.22;100.00
68226;BME280;55045;49.410;11.030;2022-12-18T13:20:38;99428.69;;;-4.13;100.00
68226;BME280;55045;49.410;11.030;2022-12-18T13:23:49;99427.81;;;-4.13;100.00
68226;BME280;55045;49.410;11.030;2022-12-18T13:31:08;99435.41;;;-4.13;100.00
68226;BME280;55045;49.410;11.030;2022-12-18T13:34:18;99302.28;;;-4.87;100.00
68226;BME280;55045;49.410;11.030;2022-12-18T13:37:44;99288.50;;;-4.96;100.00
68226;BME280;55045;49.410;11.030;2022-12-18T13:41:23;99397.56;;;-4.36;100.00
68226;BME280;55045;49.410;11.030;2022-12-18T13:44:37;99286.75;;;-4.98;100.00
68226;BME280;55045;49.410;11.030;2022-12-18T13:47:43;99437.13;;;-4.12;100.00
68226;BME280;55045;49.410;11.030;2022-12-18T13:51:04;99434.44;;;-4.18;100.00
68226;BME280;55045;49.410;11.030;2022-12-18T13:54:19;99302.88;;;-4.95;100.00
68226;BME280;55045;49.410;11.030;2022-12-18T13:57:36;99392.25;;;-4.43;100.00
68226;BME280;55045;49.410;11.030;2022-12-18T14:00:47;99429.03;;;-4.29;100.00
68226;BME280;55045;49.410;11.030;2022-12-18T14:04:09;99405.25;;;-4.32;100.00
68226;BME280;55045;49.410;11.030;2022-12-18T14:07:22;99418.13;;;-4.26;100.00
68226;BME280;55045;49.410;11.030;2022-12-18T14:10:40;99409.41;;;-4.35;100.00
68226;BME280;55045;49.410;11.030;2022-12-18T14:13:53;99356.69;;;-4.73;100.00
68226;BME280;55045;49.410;11.030;2022-12-18T14:17:10;99409.22;;;-4.41;100.00
68226;BME280;55045;49.410;11.030;2022-12-18T14:20:17;99337.00;;;-4.82;100.00
68226;BME280;55045;49.410;11.030;2022-12-18T14:23:41;99403.75;;;-4.53;100.00
68226;BME280;55045;49.410;11.030;2022-12-18T14:27:17;99395.91;;;-4.60;100.00
68226;BME280;55045;49.410;11.030;2022-12-18T14:30:44;99395.56;;;-4.71;100.00
68226;BME280;55045;49.410;11.030;2022-12-18T14:33:55;99416.16;;;-4.60;100.00
68226;BME280;55045;49.410;11.030;2022-12-18T14:37:04;99415.16;;;-4.66;100.00
68226;BME280;55045;49.410;11.030;2022-12-18T14:40:16;99407.91;;;-4.80;100.00
68226;BME280;55045;49.410;11.030;2022-12-18T14:43:26;99434.41;;;-4.71;100.00
68226;BME280;55045;49.410;11.030;2022-12-18T14:46:41;99424.94;;;-4.76;100.00
68226;BME280;55045;49.410;11.030;2022-12-18T14:49:53;99414.50;;;-4.85;100.00
68226;BME280;55045;49.410;11.030;2022-12-18T14:53:18;99434.16;;;-4.78;100.00
68226;BME280;55045;49.410;11.030;2022-12-18T14:56:34;99422.91;;;-4.86;100.00
68226;BME280;55045;49.410;11.030;2022-12-18T15:00:04;99439.00;;;-4.84;100.00
68226;BME280;55045;49.410;11.030;2022-12-18T15:03:15;99434.53;;;-4.92;100.00
68226;BME280;55045;49.410;11.030;2022-12-18T15:06:35;99396.47;;;-5.20;100.00
68226;BME280;55045;49.410;11.030;2022-12-18T15:10:10;99443.47;;;-5.01;100.00
68226;BME280;55045;49.410;11.030;2022-12-18T15:13:22;99437.50;;;-5.03;100.00
68226;BME280;55045;49.410;11.030;2022-12-18T15:16:38;99441.63;;;-5.07;100.00
68226;BME280;55045;49.410;11.030;2022-12-18T15:20:03;99435.66;;;-5.09;100.00
68226;BME280;55045;49.410;11.030;2022-12-18T15:23:44;99417.56;;;-5.19;100.00
68226;BME280;55045;49.410;11.030;2022-12-18T15:26:55;99432.84;;;-5.16;100.00
68226;BME280;55045;49.410;11.030;2022-12-18T15:30:22;99422.94;;;-5.10;100.00
68226;BME280;55045;49.410;11.030;2022-12-18T15:33:33;99416.25;;;-5.32;100.00
68226;BME280;55045;49.410;11.030;2022-12-18T15:36:57;99422.16;;;-5.32;100.00
68226;BME280;55045;49.410;11.030;2022-12-18T15:40:21;99414.00;;;-5.48;100.00
68226;BME280;55045;49.410;11.030;2022-12-18T15:43:28;99429.59;;;-5.36;100.00
68226;BME280;55045;49.410;11.030;2022-12-18T15:46:43;99403.78;;;-5.52;100.00
68226;BME280;55045;49.410;11.030;2022-12-18T15:49:47;99438.34;;;-5.28;100.00
68226;BME280;55045;49.410;11.030;2022-12-18T15:53:00;99435.47;;;-5.37;100.00
68226;BME280;55045;49.410;11.030;2022-12-18T15:56:10;99450.47;;;-5.42;100.00
68226;BME280;55045;49.410;11.030;2022-12-18T15:59:37;99454.66;;;-5.42;100.00
68226;BME280;55045;49.410;11.030;2022-12-18T16:02:59;99455.50;;;-5.42;100.00
68226;BME280;55045;49.410;11.030;2022-12-18T16:06:10;99453.81;;;-5.43;100.00
68226;BME280;55045;49.410;11.030;2022-12-18T16:09:28;99428.06;;;-5.55;100.00
68226;BME280;55045;49.410;11.030;2022-12-18T16:12:52;99431.38;;;-5.58;100.00
68226;BME280;55045;49.410;11.030;2022-12-18T16:15:59;99430.09;;;-5.46;100.00
68226;BME280;55045;49.410;11.030;2022-12-18T16:19:11;99419.28;;;-5.65;100.00
68226;BME280;55045;49.410;11.030;2022-12-18T16:22:29;99432.63;;;-5.69;100.00
68226;BME280;55045;49.410;11.030;2022-12-18T16:25:39;99450.31;;;-5.69;100.00
68226;BME280;55045;49.410;11.030;2022-12-18T16:28:58;99443.56;;;-5.70;100.00
68226;BME280;55045;49.410;11.030;2022-12-18T16:34:47;99438.25;;;-5.76;100.00
68226;BME280;55045;49.410;11.030;2022-12-18T16:38:00;99434.81;;;-5.78;100.00
68226;BME280;55045;49.410;11.030;2022-12-18T16:41:17;99428.16;;;-5.76;100.00
68226;BME280;55045;49.410;11.030;2022-12-18T16:45:00;99407.28;;;-5.94;100.00
68226;BME280;55045;49.410;11.030;2022-12-18T16:48:10;99432.75;;;-5.88;100.00
68226;BME280;55045;49.410;11.030;2022-12-18T16:51:20;99428.56;;;-5.88;100.00
68226;BME280;55045;49.410;11.030;2022-12-18T16:54:30;99431.81;;;-5.92;100.00
68226;BME280;55045;49.410;11.030;2022-12-18T16:57:43;99424.00;;;-5.98;100.00